sensor_id;sensor_type;location;lat;lon;timestamp;temperature;humidity
12911;DHT22;6523;49.758;6.120;2022-08-02T00:01:54;16.50;99.90
12911;DHT22;6523;49.758;6.120;2022-08-02T00:04:20;16.40;99.90
12911;DHT22;6523;49.758;6.120;2022-08-02T00:06:45;16.30;99.90
12911;DHT22;6523;49.758;6.120;2022-08-02T00:09:11;16.30;99.90
12911;DHT22;6523;49.758;6.120;2022-08-02T00:11:37;16.50;99.90
12911;DHT22;6523;49.758;6.120;2022-08-02T00:14:03;16.50;99.90
12911;DHT22;6523;49.758;6.120;2022-08-02T00:16:28;16.50;99.90
12911;DHT22;6523;49.758;6.120;2022-08-02T00:18:54;16.40;99.90
12911;DHT22;6523;49.758;6.120;2022-08-02T00:21:20;16.40;99.90
12911;DHT22;6523;49.758;6.120;2022-08-02T00:23:45;16.20;99.90
12911;DHT22;6523;49.758;6.120;2022-08-02T00:26:11;16.20;99.90
12911;DHT22;6523;49.758;6.120;2022-08-02T00:28:36;16.20;99.90
12911;DHT22;6523;49.758;6.120;2022-08-02T00:31:02;16.20;99.90
12911;DHT22;6523;49.758;6.120;2022-08-02T00:33:28;16.40;99.90
12911;DHT22;6523;49.758;6.120;2022-08-02T00:35:53;16.40;99.90
12911;DHT22;6523;49.758;6.120;2022-08-02T00:38:19;16.50;99.90
12911;DHT22;6523;49.758;6.120;2022-08-02T00:40:49;16.50;99.90
12911;DHT22;6523;49.758;6.120;2022-08-02T00:43:16;16.50;99.90
12911;DHT22;6523;49.758;6.120;2022-08-02T00:45:41;16.30;99.90
12911;DHT22;6523;49.758;6.120;2022-08-02T00:48:08;16.40;99.90
12911;DHT22;6523;49.758;6.120;2022-08-02T00:50:35;16.40;99.90
12911;DHT22;6523;49.758;6.120;2022-08-02T00:53:02;16.30;99.90
12911;DHT22;6523;49.758;6.120;2022-08-02T00:55:28;16.20;99.90
12911;DHT22;6523;49.758;6.120;2022-08-02T00:57:54;16.10;99.90
12911;DHT22;6523;49.758;6.120;2022-08-02T01:00:20;16.10;99.90
12911;DHT22;6523;49.758;6.120;2022-08-02T01:02:46;16.10;99.90
12911;DHT22;6523;49.758;6.120;2022-08-02T01:05:11;16.20;99.90
12911;DHT22;6523;49.758;6.120;2022-08-02T01:07:37;16.30;99.90
12911;DHT22;6523;49.758;6.120;2022-08-02T01:10:04;16.30;99.90
12911;DHT22;6523;49.758;6.120;2022-08-02T01:12:30;16.20;99.90
12911;DHT22;6523;49.758;6.120;2022-08-02T01:14:59;16.20;99.90
12911;DHT22;6523;49.758;6.120;2022-08-02T01:17:31;16.00;99.90
12911;DHT22;6523;49.758;6.120;2022-08-02T01:22:55;15.90;99.90
12911;DHT22;6523;49.758;6.120;2022-08-02T01:30:42;16.20;99.90
12911;DHT22;6523;49.758;6.120;2022-08-02T01:33:10;16.10;99.90
12911;DHT22;6523;49.758;6.120;2022-08-02T01:35:44;16.20;99.90
12911;DHT22;6523;49.758;6.120;2022-08-02T01:38:34;16.20;99.90
12911;DHT22;6523;49.758;6.120;2022-08-02T01:41:02;16.20;99.90
12911;DHT22;6523;49.758;6.120;2022-08-02T01:43:30;16.20;99.90
12911;DHT22;6523;49.758;6.120;2022-08-02T01:45:59;16.00;99.90
12911;DHT22;6523;49.758;6.120;2022-08-02T01:48:26;16.10;99.90
12911;DHT22;6523;49.758;6.120;2022-08-02T01:50:53;16.10;99.90
12911;DHT22;6523;49.758;6.120;2022-08-02T01:53:20;16.10;99.90
12911;DHT22;6523;49.758;6.120;2022-08-02T01:55:49;16.00;99.90
12911;DHT22;6523;49.758;6.120;2022-08-02T01:58:16;15.90;99.90
12911;DHT22;6523;49.758;6.120;2022-08-02T02:00:45;15.90;99.90
12911;DHT22;6523;49.758;6.120;2022-08-02T02:03:19;16.00;99.90
12911;DHT22;6523;49.758;6.120;2022-08-02T02:05:47;15.90;99.90
12911;DHT22;6523;49.758;6.120;2022-08-02T02:08:14;16.00;99.90
12911;DHT22;6523;49.758;6.120;2022-08-02T02:10:41;16.10;99.90
12911;DHT22;6523;49.758;6.120;2022-08-02T02:13:13;16.10;99.90
12911;DHT22;6523;49.758;6.120;2022-08-02T02:15:42;16.10;99.90
12911;DHT22;6523;49.758;6.120;2022-08-02T02:18:10;16.20;99.90
12911;DHT22;6523;49.758;6.120;2022-08-02T02:20:37;16.10;99.90
12911;DHT22;6523;49.758;6.120;2022-08-02T02:23:02;16.00;99.90
12911;DHT22;6523;49.758;6.120;2022-08-02T02:25:28;16.00;99.90
12911;DHT22;6523;49.758;6.120;2022-08-02T02:28:05;16.00;99.90
12911;DHT22;6523;49.758;6.120;2022-08-02T02:30:32;16.00;99.90
12911;DHT22;6523;49.758;6.120;2022-08-02T02:33:02;16.00;99.90
12911;DHT22;6523;49.758;6.120;2022-08-02T02:35:32;16.00;99.90
12911;DHT22;6523;49.758;6.120;2022-08-02T02:38:02;16.00;99.90
12911;DHT22;6523;49.758;6.120;2022-08-02T02:40:29;15.90;99.90
12911;DHT22;6523;49.758;6.120;2022-08-02T02:42:57;15.80;99.90
12911;DHT22;6523;49.758;6.120;2022-08-02T02:45:24;15.80;99.90
12911;DHT22;6523;49.758;6.120;2022-08-02T02:47:51;15.70;99.90
12911;DHT22;6523;49.758;6.120;2022-08-02T02:50:19;15.70;99.90
12911;DHT22;6523;49.758;6.120;2022-08-02T02:52:46;15.70;99.90
12911;DHT22;6523;49.758;6.120;2022-08-02T02:55:13;15.60;99.90
12911;DHT22;6523;49.758;6.120;2022-08-02T02:57:40;15.70;99.90
12911;DHT22;6523;49.758;6.120;2022-08-02T03:00:09;15.60;99.90
12911;DHT22;6523;49.758;6.120;2022-08-02T03:02:37;15.60;99.90
12911;DHT22;6523;49.758;6.120;2022-08-02T03:05:03;15.60;99.90
12911;DHT22;6523;49.758;6.120;2022-08-02T03:07:33;15.70;99.90
12911;DHT22;6523;49.758;6.120;2022-08-02T03:10:00;15.70;99.90
12911;DHT22;6523;49.758;6.120;2022-08-02T03:12:28;15.70;99.90
12911;DHT22;6523;49.758;6.120;2022-08-02T03:14:54;15.70;99.90
12911;DHT22;6523;49.758;6.120;2022-08-02T03:17:20;15.60;99.90
12911;DHT22;6523;49.758;6.120;2022-08-02T03:19:45;15.50;99.90
12911;DHT22;6523;49.758;6.120;2022-08-02T03:22:11;15.50;99.90
12911;DHT22;6523;49.758;6.120;2022-08-02T03:24:37;15.50;99.90
12911;DHT22;6523;49.758;6.120;2022-08-02T03:27:03;15.50;99.90
12911;DHT22;6523;49.758;6.120;2022-08-02T03:29:28;15.40;99.90
12911;DHT22;6523;49.758;6.120;2022-08-02T03:31:55;15.40;99.90
12911;DHT22;6523;49.758;6.120;2022-08-02T03:34:21;15.40;99.90
12911;DHT22;6523;49.758;6.120;2022-08-02T03:36:50;15.50;99.90
12911;DHT22;6523;49.758;6.120;2022-08-02T03:39:18;15.50;99.90
12911;DHT22;6523;49.758;6.120;2022-08-02T03:41:44;15.40;99.90
12911;DHT22;6523;49.758;6.120;2022-08-02T03:44:12;15.40;99.90
12911;DHT22;6523;49.758;6.120;2022-08-02T03:46:38;15.40;99.90
12911;DHT22;6523;49.758;6.120;2022-08-02T03:49:06;15.30;99.90
12911;DHT22;6523;49.758;6.120;2022-08-02T03:51:33;15.30;99.90
12911;DHT22;6523;49.758;6.120;2022-08-02T03:54:00;15.40;99.90
12911;DHT22;6523;49.758;6.120;2022-08-02T03:56:27;15.30;99.90
12911;DHT22;6523;49.758;6.120;2022-08-02T03:59:08;15.30;99.90
12911;DHT22;6523;49.758;6.120;2022-08-02T04:01:34;15.20;99.90
12911;DHT22;6523;49.758;6.120;2022-08-02T04:03:59;15.30;99.90
12911;DHT22;6523;49.758;6.120;2022-08-02T04:06:25;15.40;99.90
12911;DHT22;6523;49.758;6.120;2022-08-02T04:08:50;15.40;99.90
12911;DHT22;6523;49.758;6.120;2022-08-02T04:11:17;15.50;99.90
12911;DHT22;6523;49.758;6.120;2022-08-02T04:13:55;15.50;99.90
12911;DHT22;6523;49.758;6.120;2022-08-02T04:16:27;15.40;99.90
12911;DHT22;6523;49.758;6.120;2022-08-02T04:18:56;15.20;99.90
12911;DHT22;6523;49.758;6.120;2022-08-02T04:21:30;15.20;99.90
12911;DHT22;6523;49.758;6.120;2022-08-02T04:23:56;15.20;99.90
12911;DHT22;6523;49.758;6.120;2022-08-02T04:26:22;15.20;99.90
12911;DHT22;6523;49.758;6.120;2022-08-02T04:28:49;15.20;99.90
12911;DHT22;6523;49.758;6.120;2022-08-02T04:31:16;15.30;99.90
12911;DHT22;6523;49.758;6.120;2022-08-02T04:33:42;15.20;99.90
12911;DHT22;6523;49.758;6.120;2022-08-02T04:36:09;15.00;99.90
12911;DHT22;6523;49.758;6.120;2022-08-02T04:38:37;15.00;99.90
12911;DHT22;6523;49.758;6.120;2022-08-02T04:41:03;15.10;99.90
12911;DHT22;6523;49.758;6.120;2022-08-02T04:43:28;15.10;99.90
12911;DHT22;6523;49.758;6.120;2022-08-02T04:45:55;15.20;99.90
12911;DHT22;6523;49.758;6.120;2022-08-02T04:48:21;15.20;99.90
12911;DHT22;6523;49.758;6.120;2022-08-02T04:50:47;15.10;99.90
12911;DHT22;6523;49.758;6.120;2022-08-02T04:53:13;15.20;99.90
12911;DHT22;6523;49.758;6.120;2022-08-02T04:55:39;15.20;99.90
12911;DHT22;6523;49.758;6.120;2022-08-02T04:58:04;15.20;99.90
12911;DHT22;6523;49.758;6.120;2022-08-02T05:00:30;15.20;99.90
12911;DHT22;6523;49.758;6.120;2022-08-02T05:02:58;15.20;99.90
12911;DHT22;6523;49.758;6.120;2022-08-02T05:05:24;15.10;99.90
12911;DHT22;6523;49.758;6.120;2022-08-02T05:07:50;15.10;99.90
12911;DHT22;6523;49.758;6.120;2022-08-02T05:10:16;15.30;99.90
12911;DHT22;6523;49.758;6.120;2022-08-02T05:12:42;15.30;99.90
12911;DHT22;6523;49.758;6.120;2022-08-02T05:15:10;15.20;99.90
12911;DHT22;6523;49.758;6.120;2022-08-02T05:17:35;15.20;99.90
12911;DHT22;6523;49.758;6.120;2022-08-02T05:20:01;15.30;99.90
12911;DHT22;6523;49.758;6.120;2022-08-02T05:22:26;15.20;99.90
12911;DHT22;6523;49.758;6.120;2022-08-02T05:24:52;15.20;99.90
12911;DHT22;6523;49.758;6.120;2022-08-02T05:27:18;15.10;99.90
12911;DHT22;6523;49.758;6.120;2022-08-02T05:29:43;15.20;99.90
12911;DHT22;6523;49.758;6.120;2022-08-02T05:32:09;15.20;99.90
12911;DHT22;6523;49.758;6.120;2022-08-02T05:34:34;15.00;99.90
12911;DHT22;6523;49.758;6.120;2022-08-02T05:37:00;15.10;99.90
12911;DHT22;6523;49.758;6.120;2022-08-02T05:39:26;15.30;99.90
12911;DHT22;6523;49.758;6.120;2022-08-02T05:41:51;15.30;99.90
12911;DHT22;6523;49.758;6.120;2022-08-02T05:44:17;15.40;99.90
12911;DHT22;6523;49.758;6.120;2022-08-02T05:46:43;15.40;99.90
12911;DHT22;6523;49.758;6.120;2022-08-02T05:49:08;15.40;99.90
12911;DHT22;6523;49.758;6.120;2022-08-02T05:51:39;15.50;99.90
12911;DHT22;6523;49.758;6.120;2022-08-02T05:54:11;15.50;99.90
12911;DHT22;6523;49.758;6.120;2022-08-02T05:57:24;15.70;99.90
12911;DHT22;6523;49.758;6.120;2022-08-02T06:02:29;15.60;99.90
12911;DHT22;6523;49.758;6.120;2022-08-02T06:05:11;15.70;99.90
12911;DHT22;6523;49.758;6.120;2022-08-02T06:07:40;15.80;99.90
12911;DHT22;6523;49.758;6.120;2022-08-02T06:10:07;15.60;99.90
12911;DHT22;6523;49.758;6.120;2022-08-02T06:12:38;15.40;99.90
12911;DHT22;6523;49.758;6.120;2022-08-02T06:15:05;15.30;99.90
12911;DHT22;6523;49.758;6.120;2022-08-02T06:17:31;15.30;99.90
12911;DHT22;6523;49.758;6.120;2022-08-02T06:19:59;15.40;99.90
12911;DHT22;6523;49.758;6.120;2022-08-02T06:22:26;15.40;99.90
12911;DHT22;6523;49.758;6.120;2022-08-02T06:24:53;15.70;99.90
12911;DHT22;6523;49.758;6.120;2022-08-02T06:27:20;15.80;99.90
12911;DHT22;6523;49.758;6.120;2022-08-02T06:29:51;15.80;99.90
12911;DHT22;6523;49.758;6.120;2022-08-02T06:32:18;15.90;99.90
12911;DHT22;6523;49.758;6.120;2022-08-02T06:34:44;16.00;99.90
12911;DHT22;6523;49.758;6.120;2022-08-02T06:37:39;16.00;99.90
12911;DHT22;6523;49.758;6.120;2022-08-02T06:40:17;16.00;99.90
12911;DHT22;6523;49.758;6.120;2022-08-02T06:42:54;16.00;99.90
12911;DHT22;6523;49.758;6.120;2022-08-02T06:45:22;16.20;99.90
12911;DHT22;6523;49.758;6.120;2022-08-02T06:47:48;16.40;99.90
12911;DHT22;6523;49.758;6.120;2022-08-02T06:50:14;16.40;99.90
12911;DHT22;6523;49.758;6.120;2022-08-02T06:52:40;16.60;99.90
12911;DHT22;6523;49.758;6.120;2022-08-02T06:55:06;16.80;99.90
12911;DHT22;6523;49.758;6.120;2022-08-02T06:57:32;17.00;99.90
12911;DHT22;6523;49.758;6.120;2022-08-02T06:59:58;17.00;99.90
12911;DHT22;6523;49.758;6.120;2022-08-02T07:02:27;17.10;99.90
12911;DHT22;6523;49.758;6.120;2022-08-02T07:04:53;17.20;99.90
12911;DHT22;6523;49.758;6.120;2022-08-02T07:07:19;17.30;99.90
12911;DHT22;6523;49.758;6.120;2022-08-02T07:09:45;17.30;99.90
12911;DHT22;6523;49.758;6.120;2022-08-02T07:12:10;17.60;99.90
12911;DHT22;6523;49.758;6.120;2022-08-02T07:14:36;17.70;99.90
12911;DHT22;6523;49.758;6.120;2022-08-02T07:17:02;17.80;99.90
12911;DHT22;6523;49.758;6.120;2022-08-02T07:19:27;17.90;99.90
12911;DHT22;6523;49.758;6.120;2022-08-02T07:21:53;17.70;99.90
12911;DHT22;6523;49.758;6.120;2022-08-02T07:24:19;18.00;99.90
12911;DHT22;6523;49.758;6.120;2022-08-02T07:26:44;18.20;99.90
12911;DHT22;6523;49.758;6.120;2022-08-02T07:29:10;18.20;99.90
12911;DHT22;6523;49.758;6.120;2022-08-02T07:31:36;18.40;99.90
12911;DHT22;6523;49.758;6.120;2022-08-02T07:34:01;18.60;99.90
12911;DHT22;6523;49.758;6.120;2022-08-02T07:36:27;18.70;99.90
12911;DHT22;6523;49.758;6.120;2022-08-02T07:38:53;18.60;99.90
12911;DHT22;6523;49.758;6.120;2022-08-02T07:41:18;18.50;99.90
12911;DHT22;6523;49.758;6.120;2022-08-02T07:43:44;18.90;99.90
12911;DHT22;6523;49.758;6.120;2022-08-02T07:46:09;19.20;99.90
12911;DHT22;6523;49.758;6.120;2022-08-02T07:48:35;19.50;99.90
12911;DHT22;6523;49.758;6.120;2022-08-02T07:51:01;19.90;99.90
12911;DHT22;6523;49.758;6.120;2022-08-02T07:53:27;20.10;99.90
12911;DHT22;6523;49.758;6.120;2022-08-02T07:55:52;20.00;99.90
12911;DHT22;6523;49.758;6.120;2022-08-02T07:58:18;20.20;99.90
12911;DHT22;6523;49.758;6.120;2022-08-02T08:00:44;20.30;99.90
12911;DHT22;6523;49.758;6.120;2022-08-02T08:03:10;20.40;99.90
12911;DHT22;6523;49.758;6.120;2022-08-02T08:05:36;20.50;99.90
12911;DHT22;6523;49.758;6.120;2022-08-02T08:08:02;20.80;99.90
12911;DHT22;6523;49.758;6.120;2022-08-02T08:10:27;21.00;99.90
12911;DHT22;6523;49.758;6.120;2022-08-02T08:12:53;21.00;99.90
12911;DHT22;6523;49.758;6.120;2022-08-02T08:15:20;21.20;99.90
12911;DHT22;6523;49.758;6.120;2022-08-02T08:17:45;21.40;99.90
12911;DHT22;6523;49.758;6.120;2022-08-02T08:20:11;21.80;99.90
12911;DHT22;6523;49.758;6.120;2022-08-02T08:22:37;21.80;99.90
12911;DHT22;6523;49.758;6.120;2022-08-02T08:25:03;22.00;99.90
12911;DHT22;6523;49.758;6.120;2022-08-02T08:27:28;22.30;99.90
12911;DHT22;6523;49.758;6.120;2022-08-02T08:29:54;22.50;99.90
12911;DHT22;6523;49.758;6.120;2022-08-02T08:32:20;22.50;99.90
12911;DHT22;6523;49.758;6.120;2022-08-02T08:34:46;22.60;99.90
12911;DHT22;6523;49.758;6.120;2022-08-02T08:37:12;22.90;99.90
12911;DHT22;6523;49.758;6.120;2022-08-02T08:39:38;23.20;99.90
12911;DHT22;6523;49.758;6.120;2022-08-02T08:42:07;23.30;99.90
12911;DHT22;6523;49.758;6.120;2022-08-02T08:44:34;23.30;99.90
12911;DHT22;6523;49.758;6.120;2022-08-02T08:47:02;23.40;99.90
12911;DHT22;6523;49.758;6.120;2022-08-02T08:49:35;23.50;99.90
12911;DHT22;6523;49.758;6.120;2022-08-02T08:52:05;23.50;99.90
12911;DHT22;6523;49.758;6.120;2022-08-02T08:54:32;23.90;99.90
12911;DHT22;6523;49.758;6.120;2022-08-02T08:56:58;24.10;99.90
12911;DHT22;6523;49.758;6.120;2022-08-02T08:59:24;24.00;99.90
12911;DHT22;6523;49.758;6.120;2022-08-02T09:01:50;24.60;99.90
12911;DHT22;6523;49.758;6.120;2022-08-02T09:04:17;24.90;99.90
12911;DHT22;6523;49.758;6.120;2022-08-02T09:06:43;25.10;99.90
12911;DHT22;6523;49.758;6.120;2022-08-02T09:09:09;24.80;99.90
12911;DHT22;6523;49.758;6.120;2022-08-02T09:11:34;24.70;99.90
12911;DHT22;6523;49.758;6.120;2022-08-02T09:14:02;25.00;99.90
12911;DHT22;6523;49.758;6.120;2022-08-02T09:21:42;25.50;99.90
12911;DHT22;6523;49.758;6.120;2022-08-02T09:24:16;25.90;99.90
12911;DHT22;6523;49.758;6.120;2022-08-02T09:26:42;25.70;99.90
12911;DHT22;6523;49.758;6.120;2022-08-02T09:29:08;25.90;99.90
12911;DHT22;6523;49.758;6.120;2022-08-02T09:31:34;26.10;99.90
12911;DHT22;6523;49.758;6.120;2022-08-02T09:34:00;25.80;99.90
12911;DHT22;6523;49.758;6.120;2022-08-02T09:36:29;25.80;99.90
12911;DHT22;6523;49.758;6.120;2022-08-02T09:39:03;26.40;99.90
12911;DHT22;6523;49.758;6.120;2022-08-02T09:41:31;26.30;99.90
12911;DHT22;6523;49.758;6.120;2022-08-02T09:43:58;26.50;99.90
12911;DHT22;6523;49.758;6.120;2022-08-02T09:46:26;26.70;99.90
12911;DHT22;6523;49.758;6.120;2022-08-02T09:48:58;26.30;99.90
12911;DHT22;6523;49.758;6.120;2022-08-02T09:51:27;26.50;99.90
12911;DHT22;6523;49.758;6.120;2022-08-02T09:53:55;26.90;99.90
12911;DHT22;6523;49.758;6.120;2022-08-02T09:56:22;27.20;99.90
12911;DHT22;6523;49.758;6.120;2022-08-02T09:58:49;26.80;99.90
12911;DHT22;6523;49.758;6.120;2022-08-02T10:01:18;26.60;99.90
12911;DHT22;6523;49.758;6.120;2022-08-02T10:03:58;27.30;99.90
12911;DHT22;6523;49.758;6.120;2022-08-02T10:06:25;27.10;99.90
12911;DHT22;6523;49.758;6.120;2022-08-02T10:08:51;26.90;99.90
12911;DHT22;6523;49.758;6.120;2022-08-02T10:11:24;27.50;99.90
12911;DHT22;6523;49.758;6.120;2022-08-02T10:13:51;27.70;99.90
12911;DHT22;6523;49.758;6.120;2022-08-02T10:16:19;27.70;99.90
12911;DHT22;6523;49.758;6.120;2022-08-02T10:18:52;27.30;99.90
12911;DHT22;6523;49.758;6.120;2022-08-02T10:21:25;28.00;99.90
12911;DHT22;6523;49.758;6.120;2022-08-02T10:24:09;28.30;99.90
12911;DHT22;6523;49.758;6.120;2022-08-02T10:26:38;27.50;99.90
12911;DHT22;6523;49.758;6.120;2022-08-02T10:29:04;27.90;99.90
12911;DHT22;6523;49.758;6.120;2022-08-02T10:31:40;28.50;99.90
12911;DHT22;6523;49.758;6.120;2022-08-02T10:34:10;29.40;99.90
12911;DHT22;6523;49.758;6.120;2022-08-02T10:36:38;28.30;99.90
12911;DHT22;6523;49.758;6.120;2022-08-02T10:39:05;28.00;99.90
12911;DHT22;6523;49.758;6.120;2022-08-02T10:41:50;28.80;99.90
12911;DHT22;6523;49.758;6.120;2022-08-02T10:44:20;28.60;99.90
12911;DHT22;6523;49.758;6.120;2022-08-02T10:46:45;29.10;99.90
12911;DHT22;6523;49.758;6.120;2022-08-02T10:49:21;29.40;99.90
12911;DHT22;6523;49.758;6.120;2022-08-02T10:54:41;28.30;99.90
12911;DHT22;6523;49.758;6.120;2022-08-02T10:57:35;27.80;99.90
12911;DHT22;6523;49.758;6.120;2022-08-02T11:00:12;28.70;99.90
12911;DHT22;6523;49.758;6.120;2022-08-02T11:02:50;30.30;99.90
12911;DHT22;6523;49.758;6.120;2022-08-02T11:05:36;30.20;99.90
12911;DHT22;6523;49.758;6.120;2022-08-02T11:08:19;29.20;99.90
12911;DHT22;6523;49.758;6.120;2022-08-02T11:10:45;28.80;99.90
12911;DHT22;6523;49.758;6.120;2022-08-02T11:13:17;29.10;99.90
12911;DHT22;6523;49.758;6.120;2022-08-02T11:15:53;28.80;99.90
12911;DHT22;6523;49.758;6.120;2022-08-02T11:18:20;28.80;99.90
12911;DHT22;6523;49.758;6.120;2022-08-02T11:20:46;29.00;99.90
12911;DHT22;6523;49.758;6.120;2022-08-02T11:23:39;29.50;99.90
12911;DHT22;6523;49.758;6.120;2022-08-02T11:28:56;29.50;99.90
12911;DHT22;6523;49.758;6.120;2022-08-02T11:31:21;29.40;99.90
12911;DHT22;6523;49.758;6.120;2022-08-02T11:33:48;30.70;99.90
12911;DHT22;6523;49.758;6.120;2022-08-02T11:36:15;31.40;99.90
12911;DHT22;6523;49.758;6.120;2022-08-02T11:38:42;32.30;99.70
12911;DHT22;6523;49.758;6.120;2022-08-02T11:41:07;32.00;91.60
12911;DHT22;6523;49.758;6.120;2022-08-02T11:43:34;31.80;75.50
12911;DHT22;6523;49.758;6.120;2022-08-02T11:46:04;30.80;56.30
12911;DHT22;6523;49.758;6.120;2022-08-02T11:48:37;30.60;48.50
12911;DHT22;6523;49.758;6.120;2022-08-02T11:51:17;30.80;44.90
12911;DHT22;6523;49.758;6.120;2022-08-02T11:53:48;31.00;42.20
12911;DHT22;6523;49.758;6.120;2022-08-02T11:56:16;31.30;40.20
12911;DHT22;6523;49.758;6.120;2022-08-02T11:59:06;30.90;31.00
12911;DHT22;6523;49.758;6.120;2022-08-02T12:01:34;29.90;24.80
12911;DHT22;6523;49.758;6.120;2022-08-02T12:04:01;29.40;22.00
12911;DHT22;6523;49.758;6.120;2022-08-02T12:06:28;30.30;21.90
12911;DHT22;6523;49.758;6.120;2022-08-02T12:09:11;31.70;23.80
12911;DHT22;6523;49.758;6.120;2022-08-02T12:11:40;33.00;20.20
12911;DHT22;6523;49.758;6.120;2022-08-02T12:14:07;30.60;8.70
12911;DHT22;6523;49.758;6.120;2022-08-02T12:16:37;31.20;9.10
12911;DHT22;6523;49.758;6.120;2022-08-02T12:19:24;30.90;6.80
12911;DHT22;6523;49.758;6.120;2022-08-02T12:22:07;30.40;2.80
12911;DHT22;6523;49.758;6.120;2022-08-02T12:24:33;31.00;4.00
12911;DHT22;6523;49.758;6.120;2022-08-02T12:26:59;31.20;1.00
12911;DHT22;6523;49.758;6.120;2022-08-02T12:29:29;31.30;1.00
12911;DHT22;6523;49.758;6.120;2022-08-02T12:31:55;30.80;1.00
12911;DHT22;6523;49.758;6.120;2022-08-02T12:34:21;31.10;1.00
12911;DHT22;6523;49.758;6.120;2022-08-02T12:37:05;31.00;1.00
12911;DHT22;6523;49.758;6.120;2022-08-02T12:39:40;30.50;1.00
12911;DHT22;6523;49.758;6.120;2022-08-02T12:42:07;30.50;1.00
12911;DHT22;6523;49.758;6.120;2022-08-02T12:44:36;31.00;1.00
12911;DHT22;6523;49.758;6.120;2022-08-02T12:47:07;31.20;1.00
12911;DHT22;6523;49.758;6.120;2022-08-02T12:49:34;32.20;1.00
12911;DHT22;6523;49.758;6.120;2022-08-02T12:52:00;31.80;1.00
12911;DHT22;6523;49.758;6.120;2022-08-02T12:54:30;32.50;1.00
12911;DHT22;6523;49.758;6.120;2022-08-02T12:57:13;31.80;1.00
12911;DHT22;6523;49.758;6.120;2022-08-02T12:59:40;31.50;1.00
12911;DHT22;6523;49.758;6.120;2022-08-02T13:02:08;31.20;1.00
12911;DHT22;6523;49.758;6.120;2022-08-02T13:04:35;30.70;1.00
12911;DHT22;6523;49.758;6.120;2022-08-02T13:07:02;30.60;1.00
12911;DHT22;6523;49.758;6.120;2022-08-02T13:09:33;31.00;1.00
12911;DHT22;6523;49.758;6.120;2022-08-02T13:11:59;31.00;1.00
12911;DHT22;6523;49.758;6.120;2022-08-02T13:14:25;30.30;1.00
12911;DHT22;6523;49.758;6.120;2022-08-02T13:16:50;30.50;1.00
12911;DHT22;6523;49.758;6.120;2022-08-02T13:19:16;31.00;1.00
12911;DHT22;6523;49.758;6.120;2022-08-02T13:21:43;30.10;1.00
12911;DHT22;6523;49.758;6.120;2022-08-02T13:24:10;30.40;1.00
12911;DHT22;6523;49.758;6.120;2022-08-02T13:26:39;31.20;1.00
12911;DHT22;6523;49.758;6.120;2022-08-02T13:29:04;32.00;1.00
12911;DHT22;6523;49.758;6.120;2022-08-02T13:31:30;32.00;1.00
12911;DHT22;6523;49.758;6.120;2022-08-02T13:33:58;31.90;1.00
12911;DHT22;6523;49.758;6.120;2022-08-02T13:36:24;31.60;1.00
12911;DHT22;6523;49.758;6.120;2022-08-02T13:38:50;31.30;1.00
12911;DHT22;6523;49.758;6.120;2022-08-02T13:41:15;30.80;1.00
12911;DHT22;6523;49.758;6.120;2022-08-02T13:43:41;30.20;1.00
12911;DHT22;6523;49.758;6.120;2022-08-02T13:46:07;31.00;1.00
12911;DHT22;6523;49.758;6.120;2022-08-02T13:48:32;30.90;1.00
12911;DHT22;6523;49.758;6.120;2022-08-02T13:50:58;30.20;1.00
12911;DHT22;6523;49.758;6.120;2022-08-02T13:53:24;30.70;1.00
12911;DHT22;6523;49.758;6.120;2022-08-02T13:55:49;30.30;1.00
12911;DHT22;6523;49.758;6.120;2022-08-02T13:58:15;29.30;1.00
12911;DHT22;6523;49.758;6.120;2022-08-02T14:00:41;29.20;1.00
12911;DHT22;6523;49.758;6.120;2022-08-02T14:03:07;29.40;1.00
12911;DHT22;6523;49.758;6.120;2022-08-02T14:05:38;29.30;1.00
12911;DHT22;6523;49.758;6.120;2022-08-02T14:08:04;29.30;1.00
12911;DHT22;6523;49.758;6.120;2022-08-02T14:10:30;29.50;1.00
12911;DHT22;6523;49.758;6.120;2022-08-02T14:12:55;29.50;1.00
12911;DHT22;6523;49.758;6.120;2022-08-02T14:15:21;29.80;1.00
12911;DHT22;6523;49.758;6.120;2022-08-02T14:17:47;29.30;1.00
12911;DHT22;6523;49.758;6.120;2022-08-02T14:20:13;29.00;1.00
12911;DHT22;6523;49.758;6.120;2022-08-02T14:22:39;29.40;1.00
12911;DHT22;6523;49.758;6.120;2022-08-02T14:25:05;29.80;1.00
12911;DHT22;6523;49.758;6.120;2022-08-02T14:27:31;30.40;1.00
12911;DHT22;6523;49.758;6.120;2022-08-02T14:29:57;31.30;1.00
12911;DHT22;6523;49.758;6.120;2022-08-02T14:32:23;31.20;1.00
12911;DHT22;6523;49.758;6.120;2022-08-02T14:34:49;31.40;1.00
12911;DHT22;6523;49.758;6.120;2022-08-02T14:37:14;31.00;1.00
12911;DHT22;6523;49.758;6.120;2022-08-02T14:39:40;30.30;1.00
12911;DHT22;6523;49.758;6.120;2022-08-02T14:42:05;30.40;1.00
12911;DHT22;6523;49.758;6.120;2022-08-02T14:44:32;30.60;1.00
12911;DHT22;6523;49.758;6.120;2022-08-02T14:46:58;29.60;1.00
12911;DHT22;6523;49.758;6.120;2022-08-02T14:49:23;29.90;1.00
12911;DHT22;6523;49.758;6.120;2022-08-02T14:51:49;29.80;1.00
12911;DHT22;6523;49.758;6.120;2022-08-02T14:54:15;29.90;1.00
12911;DHT22;6523;49.758;6.120;2022-08-02T14:56:40;29.60;1.00
12911;DHT22;6523;49.758;6.120;2022-08-02T14:59:06;29.10;1.00
12911;DHT22;6523;49.758;6.120;2022-08-02T15:01:33;29.30;1.00
12911;DHT22;6523;49.758;6.120;2022-08-02T15:03:58;29.20;1.00
12911;DHT22;6523;49.758;6.120;2022-08-02T15:06:24;29.00;1.00
12911;DHT22;6523;49.758;6.120;2022-08-02T15:08:53;29.30;1.00
12911;DHT22;6523;49.758;6.120;2022-08-02T15:11:18;29.20;1.00
12911;DHT22;6523;49.758;6.120;2022-08-02T15:13:45;28.80;1.00
12911;DHT22;6523;49.758;6.120;2022-08-02T15:16:10;28.90;1.00
12911;DHT22;6523;49.758;6.120;2022-08-02T15:18:36;29.00;1.00
12911;DHT22;6523;49.758;6.120;2022-08-02T15:21:02;29.00;1.00
12911;DHT22;6523;49.758;6.120;2022-08-02T15:23:28;28.90;1.00
12911;DHT22;6523;49.758;6.120;2022-08-02T15:25:54;28.90;1.00
12911;DHT22;6523;49.758;6.120;2022-08-02T15:28:20;29.30;1.00
12911;DHT22;6523;49.758;6.120;2022-08-02T15:30:45;29.70;1.00
12911;DHT22;6523;49.758;6.120;2022-08-02T15:33:11;29.10;1.00
12911;DHT22;6523;49.758;6.120;2022-08-02T15:35:37;29.00;1.00
12911;DHT22;6523;49.758;6.120;2022-08-02T15:38:02;29.80;1.00
12911;DHT22;6523;49.758;6.120;2022-08-02T15:40:28;29.60;1.00
12911;DHT22;6523;49.758;6.120;2022-08-02T15:42:55;29.30;1.00
12911;DHT22;6523;49.758;6.120;2022-08-02T15:45:20;29.30;1.00
12911;DHT22;6523;49.758;6.120;2022-08-02T15:47:46;29.40;1.00
12911;DHT22;6523;49.758;6.120;2022-08-02T15:50:12;29.20;1.00
12911;DHT22;6523;49.758;6.120;2022-08-02T15:52:38;29.20;1.00
12911;DHT22;6523;49.758;6.120;2022-08-02T15:55:04;30.40;1.00
12911;DHT22;6523;49.758;6.120;2022-08-02T15:57:30;30.60;1.00
12911;DHT22;6523;49.758;6.120;2022-08-02T15:59:56;30.60;1.00
12911;DHT22;6523;49.758;6.120;2022-08-02T16:02:24;30.10;1.00
12911;DHT22;6523;49.758;6.120;2022-08-02T16:04:49;30.10;1.00
12911;DHT22;6523;49.758;6.120;2022-08-02T16:07:15;29.80;1.00
12911;DHT22;6523;49.758;6.120;2022-08-02T16:09:41;29.70;1.00
12911;DHT22;6523;49.758;6.120;2022-08-02T16:12:06;30.80;1.00
12911;DHT22;6523;49.758;6.120;2022-08-02T16:14:32;31.60;1.00
12911;DHT22;6523;49.758;6.120;2022-08-02T16:16:58;31.00;1.00